Windsor Park, Mississippi
Current Conditions -  °F | °C
As of 3:58 PM on Tuesday 25 Nov 2014 (Local Time) from KBIX Reporting Station
Scattered Clouds Scattered Clouds  
Wind Chill: 56°   Ceiling: Unl
Heat Index: 56°   Visibility: 10mi
Dew Point: 34°   Wind: 8mph
Humidity: 44%   Direction: 340°NNW
Pressure: 30.13"   Gusts: NA
Location:  30.418°N, 88.7558°W
Report Text: KBIX 252158Z AUTO 34007KT 10SM SCT120 13/01 A3013 RMK AO2 SLP206 T01310011
Loading
Personal Weather Stations






























Interactive Weather Map New forecast layout! Learn more

10-Day Weather Forecast

Advertisements
Track Severe Weather on mobile